createdAt,value
2018-07-14T00:00:03.398Z,22.7
2018-07-14T00:01:13.487Z,22.71
2018-07-14T00:02:23.556Z,22.69
2018-07-14T00:03:33.432Z,22.76
2018-07-14T00:04:43.507Z,22.82
2018-07-14T00:05:53.647Z,22.79
2018-07-14T00:07:03.456Z,22.81
2018-07-14T00:08:13.550Z,22.75
2018-07-14T00:09:23.630Z,22.85
2018-07-14T00:10:33.692Z,22.88
2018-07-14T00:11:43.754Z,22.85
2018-07-14T00:12:53.842Z,22.89
2018-07-14T00:14:03.929Z,22.89
2018-07-14T00:15:13.778Z,22.89
2018-07-14T00:16:23.862Z,22.91
2018-07-14T00:17:33.944Z,22.91
2018-07-14T00:18:44.054Z,22.91
2018-07-14T00:19:54.127Z,22.89
2018-07-14T00:21:03.738Z,22.96
2018-07-14T00:22:13.561Z,23.03
2018-07-14T00:23:23.372Z,22.97
2018-07-14T00:24:33.316Z,22.99
2018-07-14T00:25:43.386Z,22.91
2018-07-14T00:26:53.184Z,22.91
2018-07-14T00:28:02.993Z,22.97
2018-07-14T00:29:13.061Z,23
2018-07-14T00:30:23.136Z,22.91
2018-07-14T00:31:33.219Z,23
2018-07-14T00:32:43.030Z,22.97
2018-07-14T00:33:53.122Z,22.88
2018-07-14T00:35:02.919Z,22.89
2018-07-14T00:36:13.005Z,22.89
2018-07-14T00:37:23.089Z,22.96
2018-07-14T00:38:33.209Z,22.91
2018-07-14T00:39:43.292Z,22.94
2018-07-14T00:40:53.385Z,22.88
2018-07-14T00:42:03.184Z,22.97
2018-07-14T00:43:13.257Z,22.88
2018-07-14T00:44:23.379Z,22.97
2018-07-14T00:45:33.435Z,22.97
2018-07-14T00:46:43.503Z,22.99
2018-07-14T00:47:53.591Z,22.99
2018-07-14T00:49:03.401Z,23.01
2018-07-14T00:50:13.496Z,22.88
2018-07-14T00:51:23.573Z,22.94
2018-07-14T00:52:33.651Z,22.92
2018-07-14T00:53:43.733Z,22.86
2018-07-14T00:54:53.535Z,22.88
2018-07-14T00:56:03.075Z,22.78
2018-07-14T00:57:13.151Z,22.75
2018-07-14T00:58:23.222Z,22.78
2018-07-14T00:59:33.326Z,22.71
2018-07-14T01:00:42.886Z,22.7
2018-07-14T01:01:53.025Z,22.69
2018-07-14T01:03:03.093Z,22.64
2018-07-14T01:04:12.917Z,22.66
2018-07-14T01:05:22.730Z,22.7
2018-07-14T01:06:32.535Z,22.61
2018-07-14T01:07:42.339Z,22.63
2018-07-14T01:08:52.399Z,22.59
2018-07-14T01:10:01.950Z,22.63
2018-07-14T01:11:12.014Z,22.48
2018-07-14T01:12:21.831Z,22.57
2018-07-14T01:13:31.649Z,22.57
2018-07-14T01:14:41.712Z,22.52
2018-07-14T01:15:51.781Z,22.52
2018-07-14T01:17:01.852Z,22.45
2018-07-14T01:18:11.930Z,22.48
2018-07-14T01:19:21.796Z,22.44
2018-07-14T01:20:31.337Z,22.41
2018-07-14T01:21:41.391Z,22.46
2018-07-14T01:22:51.473Z,22.41
2018-07-14T01:24:01.563Z,22.36
2018-07-14T01:25:11.362Z,22.42
2018-07-14T01:26:21.417Z,22.39
2018-07-14T01:27:31.267Z,22.23
2018-07-14T01:28:41.075Z,22.31
2018-07-14T01:29:51.136Z,22.31
2018-07-14T01:31:01.197Z,22.22
2018-07-14T01:32:11.003Z,22.16
2018-07-14T01:33:20.835Z,22.2
2018-07-14T01:34:30.898Z,22.15
2018-07-14T01:35:40.969Z,22.15
2018-07-14T01:36:51.055Z,22.09
2018-07-14T01:38:00.863Z,21.97
2018-07-14T01:39:10.690Z,21.97
2018-07-14T01:40:20.770Z,22.02
2018-07-14T01:41:30.846Z,21.97
2018-07-14T01:42:40.920Z,22
2018-07-14T01:43:50.736Z,21.97
2018-07-14T01:45:00.809Z,21.94
2018-07-14T01:46:10.109Z,21.97
2018-07-14T01:47:19.920Z,21.89
2018-07-14T01:48:30.055Z,21.86
2018-07-14T01:49:40.100Z,21.92
2018-07-14T01:50:50.171Z,21.82
2018-07-14T01:52:00.245Z,21.83
2018-07-14T01:53:10.053Z,21.92
2018-07-14T01:54:19.882Z,21.89
2018-07-14T01:55:29.699Z,21.82
2018-07-14T01:56:39.766Z,21.78
2018-07-14T01:57:49.843Z,21.89
2018-07-14T01:58:59.373Z,21.85
2018-07-14T02:00:08.665Z,21.85
2018-07-14T02:01:18.484Z,21.83
2018-07-14T02:02:28.296Z,21.82
2018-07-14T02:03:38.359Z,21.68
2018-07-14T02:04:48.438Z,21.71
2018-07-14T02:05:58.500Z,21.73
2018-07-14T02:07:08.565Z,21.83
2018-07-14T02:08:18.637Z,21.74
2018-07-14T02:09:28.446Z,21.73
2018-07-14T02:10:38.265Z,21.7
2018-07-14T02:11:48.354Z,21.66
2018-07-14T02:12:58.449Z,21.62
2018-07-14T02:14:08.262Z,21.64
2018-07-14T02:15:18.385Z,21.62
2018-07-14T02:16:27.887Z,21.58
2018-07-14T02:17:37.445Z,21.59
2018-07-14T02:18:47.511Z,21.58
2018-07-14T02:19:57.589Z,21.56
2018-07-14T02:21:07.663Z,21.58
2018-07-14T02:22:17.749Z,21.52
2018-07-14T02:23:27.882Z,21.58
2018-07-14T02:24:37.961Z,21.59
2018-07-14T02:25:48.026Z,21.59
2018-07-14T02:26:58.116Z,21.55
2018-07-14T02:28:08.179Z,21.55
2018-07-14T02:29:18.234Z,21.62
2018-07-14T02:30:28.297Z,21.61
2018-07-14T02:31:38.128Z,21.56
2018-07-14T02:32:47.687Z,21.55
2018-07-14T02:33:57.778Z,21.62
2018-07-14T02:35:07.839Z,21.56
2018-07-14T02:36:17.687Z,21.56
2018-07-14T02:37:27.497Z,21.64
2018-07-14T02:38:37.321Z,21.53
2018-07-14T02:39:47.384Z,21.53
2018-07-14T02:40:57.205Z,21.52
2018-07-14T02:42:07.061Z,21.51
2018-07-14T02:43:16.621Z,21.49
2018-07-14T02:44:26.438Z,21.48
2018-07-14T02:45:36.246Z,21.49
2018-07-14T02:46:46.329Z,21.52
2018-07-14T02:47:56.407Z,21.51
2018-07-14T02:49:06.492Z,21.51
2018-07-14T02:50:16.556Z,21.48
2018-07-14T02:51:26.623Z,21.49
2018-07-14T02:52:36.440Z,21.51
2018-07-14T02:53:46.528Z,21.48
2018-07-14T02:54:56.616Z,21.59
2018-07-14T02:56:06.713Z,21.49
2018-07-14T02:57:16.541Z,21.51
2018-07-14T02:58:26.372Z,21.51
2018-07-14T02:59:36.560Z,21.49
2018-07-14T03:00:45.915Z,21.51
2018-07-14T03:01:55.725Z,21.52
2018-07-14T03:03:05.558Z,21.52
2018-07-14T03:35:36.367Z,19.8
2018-07-14T03:36:46.434Z,19.74
2018-07-14T03:37:56.698Z,19.71
2018-07-14T03:39:06.767Z,19.82
2018-07-14T03:40:16.830Z,19.83
2018-07-14T03:41:26.625Z,19.89
2018-07-14T03:42:36.424Z,19.98
2018-07-14T03:43:46.474Z,20.01
2018-07-14T03:44:56.534Z,20.25
2018-07-14T03:46:06.609Z,20.27
2018-07-14T03:47:16.659Z,20.38
2018-07-14T03:48:26.742Z,20.51
2018-07-14T03:49:36.827Z,20.64
2018-07-14T03:50:46.898Z,20.81
2018-07-14T03:51:56.976Z,20.88
2018-07-14T03:53:07.108Z,21.06
2018-07-14T03:54:17.171Z,21.08
2018-07-14T03:55:27.001Z,21.28
2018-07-14T03:56:37.117Z,21.37
2018-07-14T03:57:46.939Z,21.43
2018-07-14T03:58:56.746Z,21.56
2018-07-14T04:00:06.816Z,21.62
2018-07-14T04:01:16.889Z,21.67
2018-07-14T04:02:26.963Z,21.68
2018-07-14T04:03:37.073Z,21.89
2018-07-14T04:04:47.176Z,21.97
2018-07-14T04:05:57.253Z,22.04
2018-07-14T04:07:07.330Z,22.09
2018-07-14T04:08:17.401Z,22.12
2018-07-14T04:09:27.468Z,22.16
2018-07-14T04:10:37.289Z,22.24
2018-07-14T04:11:47.432Z,22.27
2018-07-14T04:12:57.579Z,22.45
2018-07-14T04:14:07.388Z,22.52
2018-07-14T04:15:17.265Z,22.57
2018-07-14T04:16:27.112Z,22.67
2018-07-14T04:17:37.220Z,22.71
2018-07-14T04:18:47.287Z,22.84
2018-07-14T04:19:57.094Z,22.89
2018-07-14T04:21:07.176Z,22.94
2018-07-14T04:22:17.045Z,22.89
2018-07-14T04:23:27.120Z,22.91
2018-07-14T04:24:37.189Z,23.09
2018-07-14T04:25:47.266Z,23.18
2018-07-14T04:26:57.344Z,23.45
2018-07-14T04:28:07.144Z,24.78
2018-07-14T04:29:16.971Z,26.45
2018-07-14T04:30:27.059Z,27.9
2018-07-14T04:31:37.143Z,28.88
2018-07-14T04:32:47.219Z,29.75
2018-07-14T04:33:57.036Z,30.56
2018-07-14T04:35:07.095Z,31.28
2018-07-14T04:36:17.170Z,31.68
2018-07-14T04:37:27.243Z,32.28
2018-07-14T04:38:37.322Z,32.75
2018-07-14T04:39:47.143Z,33.16
2018-07-14T04:40:56.958Z,33.41
2018-07-14T04:42:07.066Z,33.71
2018-07-14T04:43:16.886Z,34.03
2018-07-14T04:44:26.702Z,34.26
2018-07-14T04:45:36.829Z,34.4
2018-07-14T04:46:46.913Z,34.67
2018-07-14T04:47:57.003Z,34.83
2018-07-14T04:49:07.083Z,35.06
2018-07-14T04:50:17.174Z,35.21
2018-07-14T04:51:27.245Z,35.31
2018-07-14T04:52:37.059Z,35.43
2018-07-14T04:53:47.147Z,35.42
2018-07-14T04:54:57.220Z,35.47
2018-07-14T04:56:07.042Z,35.49
2018-07-14T04:57:17.142Z,35.58
2018-07-14T04:58:27.219Z,35.67
2018-07-14T04:59:37.041Z,35.84
2018-07-14T05:00:47.113Z,35.9
2018-07-14T05:01:57.204Z,35.94
2018-07-14T05:03:07.043Z,36.06
2018-07-14T05:04:16.866Z,36.22
2018-07-14T05:05:26.953Z,36.24
2018-07-14T05:06:37.101Z,36.33
2018-07-14T05:07:46.914Z,36.33
2018-07-14T05:08:57.010Z,36.43
2018-07-14T05:10:07.091Z,36.55
2018-07-14T05:11:17.173Z,36.58
2018-07-14T05:12:27.010Z,36.73
2018-07-14T05:13:36.830Z,36.81
2018-07-14T05:14:46.645Z,36.89
2018-07-14T05:15:56.457Z,37.15
2018-07-14T05:17:06.542Z,37.26
2018-07-14T05:18:16.363Z,37.33
2018-07-14T05:19:26.186Z,37.33
2018-07-14T05:20:36.268Z,37.34
2018-07-14T05:21:46.089Z,37.42
2018-07-14T05:22:56.177Z,37.41
2018-07-14T05:24:06.239Z,37.53
2018-07-14T05:25:16.071Z,37.51
2018-07-14T05:26:26.141Z,37.65
2018-07-14T05:27:35.956Z,37.66
2018-07-14T05:28:46.245Z,37.71
2018-07-14T05:29:56.328Z,37.76
2018-07-14T05:31:06.410Z,37.75
2018-07-14T05:32:16.470Z,37.75
2018-07-14T05:33:26.289Z,37.61
2018-07-14T05:34:36.365Z,37.62
2018-07-14T05:35:46.183Z,37.61
2018-07-14T05:36:56.262Z,37.62
2018-07-14T05:38:06.336Z,37.49
2018-07-14T05:39:16.154Z,37.33
2018-07-14T05:40:25.708Z,37.37
2018-07-14T05:41:35.776Z,37.31
2018-07-14T05:42:45.582Z,37.27
2018-07-14T05:43:55.722Z,37.18
2018-07-14T05:45:05.984Z,37.12
2018-07-14T05:46:16.083Z,37.08
2018-07-14T05:47:25.897Z,37.07
2018-07-14T05:48:35.976Z,37
2018-07-14T05:49:45.800Z,37.04
2018-07-14T05:50:55.637Z,37.05
2018-07-14T05:52:05.791Z,36.99
2018-07-14T05:53:16.174Z,36.95
2018-07-14T05:54:26.249Z,36.89
2018-07-14T05:55:36.049Z,36.81
2018-07-14T05:56:46.141Z,36.73
2018-07-14T05:57:56.207Z,36.63
2018-07-14T05:59:06.282Z,36.59
2018-07-14T06:00:16.428Z,36.56
2018-07-14T06:01:26.515Z,36.41
2018-07-14T06:02:36.593Z,36.37
2018-07-14T06:03:46.672Z,36.34
2018-07-14T06:04:56.746Z,36.33
2018-07-14T06:06:06.848Z,36.21
2018-07-14T06:07:16.917Z,36.12
2018-07-14T06:08:26.998Z,36.12
2018-07-14T06:09:37.094Z,35.94
2018-07-14T06:10:46.938Z,35.95
2018-07-14T06:11:56.763Z,35.79
2018-07-14T06:13:06.582Z,35.57
2018-07-14T06:14:16.861Z,35.39
2018-07-14T06:15:27.279Z,35.24
2018-07-14T06:16:37.363Z,35.23
2018-07-14T06:17:47.450Z,35.09
2018-07-14T06:18:57.514Z,34.97
2018-07-14T06:20:07.589Z,34.89
2018-07-14T06:21:17.691Z,34.77
2018-07-14T06:22:27.824Z,34.64
2018-07-14T06:23:37.903Z,34.33
2018-07-14T06:24:47.753Z,33.71
2018-07-14T06:25:57.841Z,33.29
2018-07-14T06:27:07.649Z,32.94
2018-07-14T06:28:17.485Z,32.75
2018-07-14T06:29:27.554Z,32.9
2018-07-14T06:30:37.649Z,32.98
2018-07-14T06:31:47.725Z,33.13
2018-07-14T06:32:57.578Z,33.16
2018-07-14T06:34:07.683Z,33.11
2018-07-14T06:35:17.495Z,33.08
2018-07-14T06:36:27.579Z,33.08
2018-07-14T06:37:37.658Z,33.02
2018-07-14T06:38:48.151Z,32.93
2018-07-14T06:39:58.239Z,32.91
2018-07-14T06:41:08.333Z,32.79
2018-07-14T06:42:18.426Z,32.65
2018-07-14T06:43:28.257Z,32.61
2018-07-14T06:44:38.151Z,32.49
2018-07-14T06:45:48.153Z,32.43
2018-07-14T06:46:58.229Z,32.34
2018-07-14T06:48:08.309Z,32.28
2018-07-14T06:49:18.121Z,32.32
2018-07-14T06:50:28.204Z,32.25
2018-07-14T06:51:38.267Z,32.16
2018-07-14T06:52:48.364Z,32.03
2018-07-14T06:53:58.563Z,31.91
2018-07-14T06:55:08.119Z,31.8
2018-07-14T06:56:18.190Z,31.72
2018-07-14T06:57:28.250Z,31.67
2018-07-14T06:58:38.076Z,31.68
2018-07-14T06:59:48.142Z,31.59
2018-07-14T07:00:58.231Z,31.5
2018-07-14T07:02:08.309Z,31.41
2018-07-14T07:03:18.451Z,31.4
2018-07-14T07:04:28.675Z,31.4
2018-07-14T07:05:38.246Z,31.4
2018-07-14T07:06:48.343Z,31.31
2018-07-14T07:07:58.164Z,31.22
2018-07-14T07:09:07.725Z,31.12
2018-07-14T07:10:17.528Z,31.04
2018-07-14T07:11:27.594Z,30.88
2018-07-14T07:12:37.692Z,30.85
2018-07-14T07:13:47.572Z,30.71
2018-07-14T07:14:57.857Z,30.63
2018-07-14T07:16:07.935Z,30.49
2018-07-14T07:17:18.007Z,30.48
2018-07-14T07:18:28.079Z,30.32
2018-07-14T07:19:38.145Z,30.26
2018-07-14T07:20:48.244Z,30.28
2018-07-14T07:21:58.321Z,30.21
2018-07-14T07:23:08.401Z,30.16
2018-07-14T07:24:18.470Z,30.18
2018-07-14T07:25:28.568Z,30.03
2018-07-14T07:26:38.199Z,30.09
2018-07-14T07:27:48.279Z,30.11
2018-07-14T07:28:58.447Z,30.04
2018-07-14T07:30:07.984Z,30.06
2018-07-14T07:31:18.075Z,30.06
2018-07-14T07:32:28.147Z,30.06
2018-07-14T07:33:38.230Z,30.14
2018-07-14T07:34:48.626Z,30.16
2018-07-14T07:35:58.714Z,30.14
2018-07-14T07:37:08.801Z,30.14
2018-07-14T07:38:18.932Z,30.14
2018-07-14T07:39:29.032Z,30.18
2018-07-14T07:40:39.094Z,30.14
2018-07-14T07:41:48.657Z,30.18
2018-07-14T07:42:58.737Z,30.11
2018-07-14T07:44:08.801Z,30.18
2018-07-14T07:45:18.885Z,30.19
2018-07-14T07:46:28.974Z,30.22
2018-07-14T07:47:39.059Z,30.31
2018-07-14T07:48:49.134Z,30.37
2018-07-14T07:49:58.687Z,30.47
2018-07-14T07:51:08.493Z,30.52
2018-07-14T07:52:18.061Z,30.51
2018-07-14T07:53:27.861Z,30.63
2018-07-14T07:54:37.949Z,30.7
2018-07-14T07:55:48.056Z,30.82
2018-07-14T07:56:57.874Z,30.71
2018-07-14T07:58:07.945Z,30.73
2018-07-14T07:59:17.772Z,30.81
2018-07-14T08:00:27.854Z,30.88
2018-07-14T08:01:38.019Z,30.86
2018-07-14T08:02:47.840Z,30.88
2018-07-14T08:03:57.921Z,30.86
2018-07-14T08:05:07.738Z,30.86
2018-07-14T08:06:17.807Z,30.84
2018-07-14T08:07:27.910Z,30.91
2018-07-14T08:08:38.172Z,30.89
2018-07-14T08:09:48.560Z,30.99
2018-07-14T08:10:58.681Z,31.04
2018-07-14T08:12:08.512Z,31.08
2018-07-14T08:13:18.660Z,31.12
2018-07-14T08:14:28.487Z,31.01
2018-07-14T08:15:38.606Z,31.23
2018-07-14T08:16:48.414Z,31.25
2018-07-14T08:17:58.500Z,31.25
2018-07-14T08:19:08.583Z,31.34
2018-07-14T08:20:18.668Z,31.33
2018-07-14T08:21:28.761Z,31.38
2018-07-14T08:22:38.672Z,31.43
2018-07-14T08:23:48.914Z,31.36
2018-07-14T08:24:58.776Z,31.38
2018-07-14T08:26:08.605Z,31.49
2018-07-14T08:27:18.739Z,31.41
2018-07-14T08:28:28.579Z,31.44
2018-07-14T08:29:38.653Z,31.45
2018-07-14T08:30:48.719Z,31.55
2018-07-14T08:31:58.558Z,31.49
2018-07-14T08:33:08.364Z,31.43
2018-07-14T08:34:18.173Z,31.41
2018-07-14T08:35:28.032Z,31.47
2018-07-14T08:36:38.107Z,31.45
2018-07-14T08:37:48.171Z,31.47
2018-07-14T08:38:57.735Z,31.5
2018-07-14T08:40:07.551Z,31.55
2018-07-14T08:41:17.359Z,31.63
2018-07-14T08:42:26.921Z,31.67
2018-07-14T08:43:37.003Z,31.78
2018-07-14T08:44:46.924Z,31.72
2018-07-14T08:45:56.750Z,31.77
2018-07-14T08:47:06.829Z,31.82
2018-07-14T08:48:16.909Z,31.86
2018-07-14T08:49:26.724Z,31.78
2018-07-14T08:50:37.145Z,31.87
2018-07-14T08:51:47.076Z,31.7
2018-07-14T08:52:57.224Z,31.71
2018-07-14T08:54:07.298Z,31.75
2018-07-14T08:55:17.381Z,31.82
2018-07-14T08:56:27.206Z,31.8
2018-07-14T08:57:37.027Z,31.87
2018-07-14T08:58:47.105Z,31.98
2018-07-14T08:59:56.915Z,32.05
2018-07-14T09:01:07.008Z,32.03
2018-07-14T09:02:16.831Z,32.13
2018-07-14T09:03:26.976Z,32.1
2018-07-14T09:04:36.593Z,32.19
2018-07-14T09:05:46.727Z,32.12
2018-07-14T09:06:56.537Z,32.15
2018-07-14T09:08:06.350Z,32.19
2018-07-14T09:09:16.161Z,32.08
2018-07-14T09:10:26.040Z,32.15
2018-07-14T09:11:35.864Z,32.17
2018-07-14T09:12:45.926Z,32.16
2018-07-14T09:13:56.023Z,32.23
2018-07-14T09:15:05.832Z,32.16
2018-07-14T09:16:15.910Z,32.15
2018-07-14T09:17:25.787Z,32.15
2018-07-14T09:18:35.881Z,32.23
2018-07-14T09:19:45.958Z,32.27
2018-07-14T09:20:55.755Z,32.35
2018-07-14T09:22:05.831Z,32.37
2018-07-14T09:23:15.908Z,32.49
2018-07-14T09:24:26.002Z,32.46
2018-07-14T09:25:36.088Z,32.54
2018-07-14T09:26:46.162Z,32.47
2018-07-14T09:27:56.243Z,32.46
2018-07-14T09:29:06.321Z,32.5
2018-07-14T09:30:16.408Z,32.59
2018-07-14T09:31:26.246Z,32.59
2018-07-14T09:32:36.490Z,32.61
2018-07-14T09:33:46.884Z,32.64
2018-07-14T09:34:56.774Z,32.65
2018-07-14T09:36:06.884Z,32.65
2018-07-14T09:37:16.976Z,32.68
2018-07-14T09:38:27.051Z,32.74
2018-07-14T09:39:36.881Z,32.84
2018-07-14T09:40:46.746Z,32.79
2018-07-14T09:41:56.560Z,32.86
2018-07-14T09:43:06.650Z,32.93
2018-07-14T09:44:16.718Z,32.91
2018-07-14T09:45:26.553Z,33.06
2018-07-14T09:46:36.647Z,33.13
2018-07-14T09:47:46.985Z,33.2
2018-07-14T09:48:57.064Z,33.37
2018-07-14T09:50:07.146Z,33.29
2018-07-14T09:51:17.220Z,33.37
2018-07-14T09:52:27.349Z,33.41
2018-07-14T09:53:37.436Z,33.48
2018-07-14T09:54:47.513Z,33.46
2018-07-14T09:55:57.590Z,33.56
2018-07-14T09:57:07.687Z,33.58
2018-07-14T09:58:17.875Z,33.59
2018-07-14T09:59:27.968Z,33.5
2018-07-14T10:00:38.060Z,33.53
2018-07-14T10:01:48.144Z,33.52
2018-07-14T10:02:57.949Z,33.53
2018-07-14T10:04:07.813Z,33.5
2018-07-14T10:05:17.884Z,33.5
2018-07-14T10:06:27.981Z,33.5
2018-07-14T10:07:38.082Z,33.56
2018-07-14T10:08:47.906Z,33.52
2018-07-14T10:09:57.790Z,33.53
2018-07-14T10:11:07.746Z,33.53
2018-07-14T10:12:17.302Z,33.56
2018-07-14T10:13:27.123Z,33.61
2018-07-14T10:14:36.954Z,33.63
2018-07-14T10:15:46.520Z,33.65
2018-07-14T10:16:56.609Z,33.63
2018-07-14T10:18:06.727Z,33.61
2018-07-14T10:19:16.552Z,33.63
2018-07-14T10:20:26.668Z,33.65
2018-07-14T10:21:36.748Z,33.69
2018-07-14T10:22:46.836Z,33.9
2018-07-14T10:23:56.932Z,33.83
2018-07-14T10:25:06.894Z,33.99
2018-07-14T10:26:17.353Z,34.12
2018-07-14T10:27:27.443Z,34.24
2018-07-14T10:28:37.265Z,34.41
2018-07-14T10:29:47.102Z,34.71
2018-07-14T10:30:57.197Z,34.94
2018-07-14T10:32:07.034Z,35.24
2018-07-14T10:33:17.168Z,35.4
2018-07-14T10:34:27.237Z,35.62
2018-07-14T10:35:37.321Z,35.74
2018-07-14T10:36:47.400Z,35.86
2018-07-14T10:37:57.209Z,35.82
2018-07-14T10:39:07.363Z,35.67
2018-07-14T10:40:17.447Z,35.6
2018-07-14T10:41:27.282Z,35.53
2018-07-14T10:42:37.739Z,35.55
2018-07-14T10:43:47.832Z,35.57
2018-07-14T10:44:57.716Z,35.62
2018-07-14T10:46:07.819Z,35.65
2018-07-14T10:47:17.911Z,35.65
2018-07-14T10:48:27.984Z,35.57
2018-07-14T10:49:38.056Z,35.76
2018-07-14T10:50:47.927Z,35.9
2018-07-14T10:51:57.760Z,36.06
2018-07-14T10:53:07.856Z,36.19
2018-07-14T10:54:17.971Z,36.37
2018-07-14T10:55:27.806Z,36.63
2018-07-14T10:56:37.897Z,36.78
2018-07-14T10:57:47.983Z,37.08
2018-07-14T10:58:58.055Z,37.27
2018-07-14T11:00:08.136Z,37.23
2018-07-14T11:01:17.967Z,37.37
2018-07-14T11:02:28.054Z,37.29
2018-07-14T11:03:37.870Z,37.22
2018-07-14T11:04:47.962Z,37.17
2018-07-14T11:05:57.783Z,37.09
2018-07-14T11:07:07.878Z,36.81
2018-07-14T11:08:17.973Z,36.8
2018-07-14T11:09:28.052Z,36.7
2018-07-14T11:10:37.866Z,36.52
2018-07-14T11:11:47.430Z,36.41
2018-07-14T11:12:57.251Z,36.34
2018-07-14T11:14:07.110Z,36.32
2018-07-14T11:15:16.963Z,36.15
2018-07-14T11:16:26.783Z,36.18
2018-07-14T11:17:36.613Z,36.3
2018-07-14T11:18:46.767Z,36.26
2018-07-14T11:19:56.602Z,36.36
2018-07-14T11:21:06.407Z,36.37
2018-07-14T11:22:16.498Z,36.53
2018-07-14T11:23:26.585Z,36.67
2018-07-14T11:24:36.405Z,36.92
2018-07-14T11:25:46.499Z,37.05
2018-07-14T11:26:56.321Z,37.23
2018-07-14T11:28:06.459Z,37.17
2018-07-14T11:29:16.272Z,37.09
2018-07-14T11:30:26.504Z,36.81
2018-07-14T11:31:36.610Z,36.55
2018-07-14T11:32:46.690Z,36.36
2018-07-14T11:33:56.784Z,36.24
2018-07-14T11:35:06.886Z,36.25
2018-07-14T11:36:16.982Z,36.15
2018-07-14T11:37:27.070Z,35.95
2018-07-14T11:38:37.218Z,35.57
2018-07-14T11:39:47.329Z,35.49
2018-07-14T11:40:56.945Z,35.34
2018-07-14T11:42:06.942Z,35.18
2018-07-14T11:43:16.946Z,34.91
2018-07-14T11:44:27.035Z,34.89
2018-07-14T11:45:37.132Z,34.97
2018-07-14T11:46:47.248Z,35.18
2018-07-14T11:47:57.627Z,35.34
2018-07-14T11:49:07.979Z,35.16
2018-07-14T11:50:18.092Z,35.23
2018-07-14T11:51:28.209Z,35.02
2018-07-14T11:52:38.308Z,34.94
2018-07-14T11:53:48.400Z,34.83
2018-07-14T11:54:58.550Z,34.74
2018-07-14T11:56:08.654Z,34.67
2018-07-14T11:57:18.740Z,34.49
2018-07-14T11:58:28.547Z,34.43
2018-07-14T11:59:38.383Z,34.43
2018-07-14T12:00:48.544Z,34.58
2018-07-14T12:01:58.705Z,35.02
2018-07-14T12:03:09.006Z,35.05
2018-07-14T12:04:18.844Z,35.09
2018-07-14T12:05:28.953Z,35.13
2018-07-14T12:06:39.048Z,35.11
2018-07-14T12:07:49.230Z,35.24
2018-07-14T12:08:59.333Z,35.38
2018-07-14T12:10:09.444Z,35.5
2018-07-14T12:11:19.524Z,35.3
2018-07-14T12:12:29.349Z,35.28
2018-07-14T12:13:39.300Z,35.13
2018-07-14T12:14:49.138Z,34.99
2018-07-14T12:15:59.245Z,34.96
2018-07-14T12:17:09.087Z,34.93
2018-07-14T12:18:19.222Z,34.99
2018-07-14T12:19:29.043Z,35.15
2018-07-14T12:20:38.859Z,35.28
2018-07-14T12:21:48.969Z,35.46
2018-07-14T12:22:59.049Z,35.76
2018-07-14T12:24:09.142Z,36.08
2018-07-14T12:25:19.242Z,35.67
2018-07-14T12:26:29.326Z,35.46
2018-07-14T12:27:39.502Z,35.58
2018-07-14T12:28:49.666Z,35.87
2018-07-14T12:29:59.775Z,35.69
2018-07-14T12:31:09.852Z,35.64
2018-07-14T12:32:19.953Z,35.72
2018-07-14T12:33:30.076Z,35.92
2018-07-14T12:34:40.175Z,36.04
2018-07-14T12:35:49.995Z,36.32
2018-07-14T12:36:59.842Z,36.52
2018-07-14T12:38:09.666Z,36.77
2018-07-14T12:39:19.507Z,36.88
2018-07-14T12:40:29.631Z,36.9
2018-07-14T12:41:39.717Z,36.86
2018-07-14T12:42:49.534Z,36.97
2018-07-14T12:43:59.625Z,37.02
2018-07-14T12:45:09.448Z,36.88
2018-07-14T12:46:19.268Z,36.89
2018-07-14T12:47:29.377Z,36.97
2018-07-14T12:48:39.469Z,37.08
2018-07-14T12:49:49.024Z,37.07
2018-07-14T12:50:58.346Z,37.14
2018-07-14T12:52:08.437Z,37.12
2018-07-14T12:53:18.283Z,37.19
2018-07-14T12:54:28.372Z,37.19
2018-07-14T12:55:38.477Z,37.3
2018-07-14T12:56:48.576Z,37.36
2018-07-14T12:57:58.665Z,37.48
2018-07-14T12:59:08.893Z,37.65
2018-07-14T13:00:19.079Z,37.81
2018-07-14T13:01:29.193Z,37.84
2018-07-14T13:02:39.022Z,38.05
2018-07-14T13:03:49.150Z,38.18
2018-07-14T13:04:59.244Z,38.3
2018-07-14T13:06:09.081Z,38.3
2018-07-14T13:07:18.931Z,38.4
2018-07-14T13:08:29.008Z,38.55
2018-07-14T13:09:38.838Z,38.77
2018-07-14T13:10:48.915Z,39.11
2018-07-14T13:11:58.774Z,39.27
2018-07-14T13:13:08.618Z,39.5
2018-07-14T13:14:18.453Z,39.59
2018-07-14T13:15:28.278Z,39.62
2018-07-14T13:16:38.365Z,39.65
2018-07-14T13:17:48.468Z,39.97
2018-07-14T13:18:58.564Z,40.03
2018-07-14T13:20:08.666Z,40.27
2018-07-14T13:21:18.766Z,40.48
2018-07-14T13:22:28.917Z,40.28
2018-07-14T13:23:38.996Z,40.12
2018-07-14T13:24:49.092Z,40.05
2018-07-14T13:25:58.931Z,39.99
2018-07-14T13:27:09.028Z,39.78
2018-07-14T13:28:19.219Z,39.62
2018-07-14T13:29:29.309Z,39.41
2018-07-14T13:30:39.410Z,39.37
2018-07-14T13:31:49.503Z,39.3
2018-07-14T13:32:59.315Z,39.16
2018-07-14T13:34:09.406Z,39.01
2018-07-14T13:35:19.221Z,38.93
2018-07-14T13:36:29.515Z,38.66
2018-07-14T13:37:39.647Z,38.08
2018-07-14T13:38:56.764Z,37.57
2018-07-14T13:40:06.526Z,37.41
2018-07-14T13:41:16.608Z,37.02
2018-07-14T13:42:26.693Z,36.8
2018-07-14T13:43:36.780Z,36.67
2018-07-14T13:44:46.627Z,36.24
2018-07-14T13:45:56.464Z,35.77
2018-07-14T13:47:06.549Z,35.68
2018-07-14T13:48:16.650Z,35.77
2018-07-14T13:49:26.733Z,35.83
2018-07-14T13:50:36.797Z,35.96
2018-07-14T13:51:46.409Z,35.92
2018-07-14T13:52:56.499Z,35.8
2018-07-14T13:54:06.336Z,35.82
2018-07-14T13:55:16.421Z,35.82
2018-07-14T13:56:26.513Z,35.84
2018-07-14T13:57:36.607Z,35.89
2018-07-14T13:58:46.707Z,35.74
2018-07-14T13:59:56.778Z,35.35
2018-07-14T14:01:06.868Z,34.94
2018-07-14T14:02:16.691Z,34.43
2018-07-14T14:03:26.771Z,34.06
2018-07-14T14:04:36.857Z,33.62
2018-07-14T14:05:46.680Z,33.24
2018-07-14T14:06:56.771Z,32.75
2018-07-14T14:08:06.592Z,32.5
2018-07-14T14:09:16.679Z,32.1
2018-07-14T14:10:26.760Z,31.81
2018-07-14T14:11:36.847Z,31.44
2018-07-14T14:12:46.944Z,31.13
2018-07-14T14:13:56.759Z,30.86
2018-07-14T14:15:06.856Z,30.73
2018-07-14T14:16:16.932Z,30.57
2018-07-14T14:17:27.015Z,30.4
2018-07-14T14:18:37.087Z,30.19
2018-07-14T14:19:47.238Z,30.1
2018-07-14T14:20:57.423Z,29.97
2018-07-14T14:22:07.255Z,29.92
2018-07-14T14:23:17.335Z,29.79
2018-07-14T14:24:27.416Z,29.66
2018-07-14T14:25:37.514Z,29.58
2018-07-14T14:26:47.621Z,29.54
2018-07-14T14:27:57.710Z,29.51
2018-07-14T14:29:07.539Z,29.5
2018-07-14T14:30:17.642Z,29.36
2018-07-14T14:31:27.471Z,29.32
2018-07-14T14:32:37.620Z,29.24
2018-07-14T14:33:47.711Z,29.23
2018-07-14T14:34:57.841Z,29.23
2018-07-14T14:36:07.960Z,29.2
2018-07-14T14:37:18.058Z,29.17
2018-07-14T14:38:27.877Z,29.26
2018-07-14T14:39:38.217Z,29.2
2018-07-14T14:40:48.299Z,29.23
2018-07-14T14:41:58.147Z,29.23
2018-07-14T14:43:07.708Z,29.28
2018-07-14T14:44:17.551Z,29.23
2018-07-14T14:45:27.629Z,29.13
2018-07-14T14:46:37.704Z,29.05
2018-07-14T14:47:47.511Z,28.91
2018-07-14T14:48:57.592Z,28.98
2018-07-14T14:50:07.736Z,28.98
2018-07-14T14:51:17.841Z,28.9
2018-07-14T14:52:27.922Z,29.11
2018-07-14T14:53:37.993Z,29.2
2018-07-14T14:54:48.070Z,29.43
2018-07-14T14:55:58.267Z,29.77
2018-07-14T14:57:08.316Z,30.02
2018-07-14T14:58:18.439Z,30.19
2018-07-14T14:59:28.610Z,30.7
2018-07-14T15:00:38.804Z,31.01
2018-07-14T15:01:48.903Z,31.33
2018-07-14T15:02:58.988Z,31.43
2018-07-14T15:04:09.075Z,31.63
2018-07-14T15:05:19.149Z,31.47
2018-07-14T15:06:29.237Z,31.31
2018-07-14T15:07:39.346Z,31.33
2018-07-14T15:08:49.456Z,31.22
2018-07-14T15:09:58.754Z,31.07
2018-07-14T15:11:08.600Z,31
2018-07-14T15:12:18.688Z,31.12
2018-07-14T15:13:28.837Z,31.06
2018-07-14T15:14:38.928Z,31.15
2018-07-14T15:15:48.553Z,31.34
2018-07-14T15:16:58.643Z,31.47
2018-07-14T15:18:08.727Z,31.44
2018-07-14T15:19:18.866Z,31.43
2018-07-14T15:20:28.947Z,31.03
2018-07-14T15:21:38.762Z,30.82
2018-07-14T15:22:48.852Z,30.49
2018-07-14T15:23:58.958Z,30.26
2018-07-14T15:25:09.046Z,30.07
2018-07-14T15:26:19.165Z,29.94
2018-07-14T15:27:29.314Z,29.75
2018-07-14T15:28:39.164Z,29.6
2018-07-14T15:29:49.259Z,29.52
2018-07-14T15:30:59.063Z,29.36
2018-07-14T15:32:09.311Z,29.3
2018-07-14T15:33:20.384Z,29.26
2018-07-14T15:34:30.663Z,29.11